Time;durP1;ratioP1;P1;durP2;ratioP2;P2;SDS_P1;SDS_P2;PMS_P1;PMS_P2;Temp;Humidity;BMP_temperature;BMP_pressure;BME280_temperature;BME280_humidity;BME280_pressure;Samples;Min_cycle;Max_cycle;Signal;HPM_P1;HPM_P2
2023/08/17 00:00:19;;;;;;;8.60;2.42;;;;;;;;;;5033295;28;20186;-72
2023/08/17 00:02:44;;;;;;;6.55;2.83;;;;;;;;;;5021171;28;20233;-71
2023/08/17 00:05:10;;;;;;;6.78;2.30;;;;;;;;;;5028498;28;20190;-72
2023/08/17 00:07:36;;;;;;;7.85;2.17;;;;;;;;;;5023189;28;20501;-71
2023/08/17 00:10:02;;;;;;;8.13;2.28;;;;;;;;;;5028172;28;20220;-71
2023/08/17 00:12:28;;;;;;;4.93;2.72;;;;;;;;;;5026042;28;20221;-71
2023/08/17 00:14:53;;;;;;;7.28;2.50;;;;;;;;;;5026861;28;20273;-71
2023/08/17 00:17:19;;;;;;;9.27;2.70;;;;;;;;;;5022724;28;20612;-71
2023/08/17 00:19:44;;;;;;;3.90;2.20;;;;;;;;;;5010098;28;20185;-72
2023/08/17 00:22:10;;;;;;;12.65;3.10;;;;;;;;;;5022927;28;20675;-72
2023/08/17 00:24:35;;;;;;;5.65;2.63;;;;;;;;;;5027215;28;20186;-71
2023/08/17 00:27:00;;;;;;;6.38;3.03;;;;;;;;;;5036283;28;20198;-72
2023/08/17 00:29:26;;;;;;;5.85;2.60;;;;;;;;;;5016253;28;20697;-71
2023/08/17 00:31:52;;;;;;;8.13;2.28;;;;;;;;;;5028884;28;20206;-71
2023/08/17 00:34:18;;;;;;;4.95;2.50;;;;;;;;;;5032806;28;20364;-72
2023/08/17 00:36:44;;;;;;;7.20;2.40;;;;;;;;;;5031111;28;20186;-72
2023/08/17 00:39:09;;;;;;;5.72;2.13;;;;;;;;;;5032634;28;20201;-73
2023/08/17 00:41:34;;;;;;;10.32;2.80;;;;;;;;;;5032150;28;20194;-72
2023/08/17 00:44:00;;;;;;;6.47;2.22;;;;;;;;;;5026893;28;20296;-72
2023/08/17 00:46:27;;;;;;;3.22;2.17;;;;;;;;;;5012115;28;20214;-72
2023/08/17 00:48:54;;;;;;;8.27;2.35;;;;;;;;;;5027740;28;20273;-71
2023/08/17 00:51:23;;;;;;;8.88;2.80;;;;;;;;;;5015002;28;20199;-72
2023/08/17 00:53:50;;;;;;;9.32;2.85;;;;;;;;;;5027596;28;20221;-72
2023/08/17 00:56:16;;;;;;;9.23;2.67;;;;;;;;;;5016727;28;20248;-72
2023/08/17 00:58:42;;;;;;;6.93;2.75;;;;;;;;;;5017498;28;20258;-72
2023/08/17 01:01:08;;;;;;;7.10;2.30;;;;;;;;;;5011320;28;20405;-73
2023/08/17 01:03:34;;;;;;;8.88;2.45;;;;;;;;;;5020599;28;20669;-72
2023/08/17 01:06:02;;;;;;;7.43;2.40;;;;;;;;;;5028576;28;20190;-72
2023/08/17 01:08:28;;;;;;;10.23;2.70;;;;;;;;;;5017773;28;20624;-72
2023/08/17 01:11:06;;;;;;;7.75;2.75;;;;;;;;;;5032248;28;20209;-72
2023/08/17 01:13:46;;;;;;;6.30;2.55;;;;;;;;;;5022974;28;20226;-72
2023/08/17 01:16:15;;;;;;;6.72;2.50;;;;;;;;;;5013587;28;20280;-72
2023/08/17 01:18:43;;;;;;;7.47;2.42;;;;;;;;;;5018351;28;20714;-72
2023/08/17 01:21:13;;;;;;;5.53;2.25;;;;;;;;;;5035487;28;20649;-72
2023/08/17 01:23:38;;;;;;;6.60;2.08;;;;;;;;;;5035537;28;20201;-72
2023/08/17 01:26:04;;;;;;;8.13;2.38;;;;;;;;;;5030446;28;20197;-72
2023/08/17 01:28:29;;;;;;;9.32;2.67;;;;;;;;;;5019245;28;20210;-72
2023/08/17 01:31:11;;;;;;;5.65;2.05;;;;;;;;;;5035983;28;20190;-72
2023/08/17 01:33:54;;;;;;;5.30;2.53;;;;;;;;;;5019619;28;20218;-72
2023/08/17 01:36:26;;;;;;;6.22;2.60;;;;;;;;;;5031289;28;20532;-72
2023/08/17 01:38:54;;;;;;;7.93;2.53;;;;;;;;;;5028795;28;20189;-72
2023/08/17 01:41:22;;;;;;;5.30;2.05;;;;;;;;;;5017366;28;20186;-72
2023/08/17 01:43:48;;;;;;;5.93;2.13;;;;;;;;;;5031107;28;20577;-72
2023/08/17 01:46:17;;;;;;;7.18;2.17;;;;;;;;;;5030592;28;20182;-72
2023/08/17 01:48:44;;;;;;;10.32;2.50;;;;;;;;;;5029361;28;20194;-72
2023/08/17 01:51:11;;;;;;;7.40;2.55;;;;;;;;;;5030682;28;20182;-72
2023/08/17 01:53:36;;;;;;;5.25;2.65;;;;;;;;;;5029798;28;20291;-72
2023/08/17 01:56:02;;;;;;;8.07;2.53;;;;;;;;;;5030553;28;20317;-71
2023/08/17 01:58:27;;;;;;;11.55;2.50;;;;;;;;;;5029063;28;20205;-73
2023/08/17 02:00:53;;;;;;;6.15;3.15;;;;;;;;;;5029980;28;20575;-72
2023/08/17 02:03:18;;;;;;;5.95;2.78;;;;;;;;;;5025933;28;20191;-72
2023/08/17 02:05:47;;;;;;;7.95;2.40;;;;;;;;;;5003548;28;20198;-72
2023/08/17 02:08:12;;;;;;;6.70;2.60;;;;;;;;;;5026887;28;20660;-72
2023/08/17 02:10:38;;;;;;;7.60;2.70;;;;;;;;;;5029772;28;20217;-71
2023/08/17 02:13:04;;;;;;;4.45;2.78;;;;;;;;;;5026991;28;20701;-72
2023/08/17 02:15:30;;;;;;;7.28;2.70;;;;;;;;;;5031172;28;20193;-72
2023/08/17 02:18:01;;;;;;;6.70;2.88;;;;;;;;;;5013146;28;20207;-73
2023/08/17 02:20:26;;;;;;;8.55;2.83;;;;;;;;;;5011688;28;20190;-72
2023/08/17 02:22:51;;;;;;;4.75;2.50;;;;;;;;;;5019682;28;20631;-72
2023/08/17 02:25:17;;;;;;;11.82;2.35;;;;;;;;;;5026360;28;20595;-72
2023/08/17 02:27:42;;;;;;;5.72;2.67;;;;;;;;;;5028984;28;20202;-72
2023/08/17 02:30:08;;;;;;;6.55;2.60;;;;;;;;;;5028167;28;20596;-72
2023/08/17 02:32:33;;;;;;;3.13;2.33;;;;;;;;;;5028509;28;20202;-72
2023/08/17 02:34:59;;;;;;;7.18;2.63;;;;;;;;;;5020819;28;20190;-73
2023/08/17 02:37:24;;;;;;;9.38;2.78;;;;;;;;;;5028976;28;20278;-72
2023/08/17 02:39:49;;;;;;;5.68;2.95;;;;;;;;;;5021239;28;20185;-72
2023/08/17 02:42:15;;;;;;;7.75;2.50;;;;;;;;;;5028702;28;20323;-73
2023/08/17 02:44:40;;;;;;;7.68;2.60;;;;;;;;;;5018455;28;20232;-72
2023/08/17 02:47:06;;;;;;;7.55;2.60;;;;;;;;;;5028935;28;20654;-73
2023/08/17 02:49:31;;;;;;;6.35;2.63;;;;;;;;;;5028752;28;20190;-72
2023/08/17 02:51:56;;;;;;;5.90;2.53;;;;;;;;;;5029483;28;20245;-72
2023/08/17 02:54:22;;;;;;;5.97;2.30;;;;;;;;;;5027467;28;20641;-72
2023/08/17 02:56:47;;;;;;;6.90;2.85;;;;;;;;;;5029695;28;20201;-73
2023/08/17 02:59:12;;;;;;;5.22;2.50;;;;;;;;;;5026109;28;20202;-72
2023/08/17 03:01:38;;;;;;;5.53;2.50;;;;;;;;;;5005599;28;20274;-71
2023/08/17 03:04:04;;;;;;;9.18;2.95;;;;;;;;;;5021297;28;20273;-71
2023/08/17 03:06:29;;;;;;;6.95;2.67;;;;;;;;;;5028352;28;20646;-71
2023/08/17 03:08:54;;;;;;;8.68;2.35;;;;;;;;;;5026467;28;20198;-71
2023/08/17 03:11:21;;;;;;;6.63;2.78;;;;;;;;;;5029154;28;20351;-71
2023/08/17 03:13:47;;;;;;;6.70;2.45;;;;;;;;;;5028324;28;20220;-73
2023/08/17 03:16:13;;;;;;;4.55;2.60;;;;;;;;;;5034933;28;20708;-72
2023/08/17 03:18:38;;;;;;;12.52;3.10;;;;;;;;;;5026926;28;20302;-72
2023/08/17 03:21:04;;;;;;;4.55;2.58;;;;;;;;;;5012242;28;20300;-72
2023/08/17 03:23:30;;;;;;;9.77;2.88;;;;;;;;;;5028858;28;20182;-72
2023/08/17 03:25:55;;;;;;;8.88;2.20;;;;;;;;;;5025186;28;20218;-71
2023/08/17 03:28:21;;;;;;;6.88;2.25;;;;;;;;;;5020926;28;20190;-72
2023/08/17 03:30:46;;;;;;;5.18;2.55;;;;;;;;;;5032041;28;20221;-70
2023/08/17 03:33:12;;;;;;;7.40;2.72;;;;;;;;;;5028181;28;20282;-70
2023/08/17 03:35:37;;;;;;;6.43;2.28;;;;;;;;;;5025899;28;20699;-71
2023/08/17 03:38:03;;;;;;;6.22;3.08;;;;;;;;;;5020958;28;20191;-70
2023/08/17 03:40:28;;;;;;;7.82;2.42;;;;;;;;;;5024376;28;20204;-70
2023/08/17 03:42:54;;;;;;;9.85;2.20;;;;;;;;;;5026871;28;20305;-70
2023/08/17 03:45:19;;;;;;;9.75;2.53;;;;;;;;;;5025046;28;20238;-71
2023/08/17 03:47:44;;;;;;;8.68;2.30;;;;;;;;;;5015003;28;20599;-70
2023/08/17 03:50:10;;;;;;;4.25;2.10;;;;;;;;;;5023423;28;20243;-71
2023/08/17 03:52:35;;;;;;;10.52;2.78;;;;;;;;;;5015192;28;20710;-71
2023/08/17 03:55:01;;;;;;;7.57;2.40;;;;;;;;;;5019846;28;20201;-71
2023/08/17 03:57:27;;;;;;;9.50;2.80;;;;;;;;;;5027145;28;20560;-71
2023/08/17 03:59:52;;;;;;;8.15;2.30;;;;;;;;;;5017366;28;20197;-71
2023/08/17 04:02:17;;;;;;;7.80;2.22;;;;;;;;;;5014934;28;20193;-71
2023/08/17 04:04:43;;;;;;;7.15;2.45;;;;;;;;;;5019684;28;20622;-71
2023/08/17 04:07:08;;;;;;;5.90;2.03;;;;;;;;;;5032912;28;20269;-71
2023/08/17 04:09:34;;;;;;;8.75;2.20;;;;;;;;;;5030736;28;20194;-70
2023/08/17 04:11:59;;;;;;;4.65;2.20;;;;;;;;;;5034369;28;20206;-72
2023/08/17 04:14:25;;;;;;;5.55;2.17;;;;;;;;;;5025217;28;20217;-71
2023/08/17 04:16:51;;;;;;;11.13;2.53;;;;;;;;;;5030773;28;20210;-71
2023/08/17 04:19:16;;;;;;;5.82;2.55;;;;;;;;;;5023146;28;20202;-72
2023/08/17 04:21:42;;;;;;;6.00;2.10;;;;;;;;;;5025772;28;21738;-71
2023/08/17 04:24:07;;;;;;;8.05;2.22;;;;;;;;;;5021731;28;20194;-71
2023/08/17 04:26:32;;;;;;;5.65;2.25;;;;;;;;;;5020617;28;20195;-71
2023/08/17 04:28:58;;;;;;;8.35;2.30;;;;;;;;;;5012235;28;20197;-71
2023/08/17 04:31:23;;;;;;;5.60;2.20;;;;;;;;;;5031736;28;20619;-71
2023/08/17 04:33:49;;;;;;;8.23;2.50;;;;;;;;;;5002767;28;20193;-71
2023/08/17 04:36:14;;;;;;;7.88;3.13;;;;;;;;;;5022989;28;20182;-71
2023/08/17 04:38:39;;;;;;;7.28;2.35;;;;;;;;;;5011446;28;20201;-71
2023/08/17 04:41:05;;;;;;;6.05;2.28;;;;;;;;;;5030406;28;20194;-70
2023/08/17 04:43:30;;;;;;;5.38;2.78;;;;;;;;;;5030768;28;20234;-70
2023/08/17 04:45:56;;;;;;;6.72;2.58;;;;;;;;;;5028898;28;20197;-70
2023/08/17 04:48:21;;;;;;;6.97;2.35;;;;;;;;;;5030684;28;20190;-71
2023/08/17 04:50:47;;;;;;;8.45;2.80;;;;;;;;;;5031128;28;20190;-71
2023/08/17 04:53:12;;;;;;;7.97;2.75;;;;;;;;;;5029405;28;20206;-71
2023/08/17 04:55:37;;;;;;;10.80;2.40;;;;;;;;;;5031715;28;20213;-71
2023/08/17 04:58:03;;;;;;;6.97;2.70;;;;;;;;;;5030833;28;20190;-71
2023/08/17 05:00:28;;;;;;;6.18;2.80;;;;;;;;;;5030795;28;20205;-72
2023/08/17 05:02:57;;;;;;;6.65;2.47;;;;;;;;;;5028370;28;20602;-71
2023/08/17 05:05:23;;;;;;;7.65;2.40;;;;;;;;;;5024802;28;20196;-72
2023/08/17 05:07:49;;;;;;;5.70;2.92;;;;;;;;;;5012519;28;20202;-71
2023/08/17 05:10:14;;;;;;;7.28;2.55;;;;;;;;;;5025347;28;20193;-71
2023/08/17 05:12:40;;;;;;;4.82;2.63;;;;;;;;;;5031509;28;20210;-71
2023/08/17 05:15:06;;;;;;;4.80;2.38;;;;;;;;;;5031009;28;20209;-71
2023/08/17 05:17:31;;;;;;;8.93;2.80;;;;;;;;;;5031000;28;20206;-71
2023/08/17 05:19:57;;;;;;;10.00;2.65;;;;;;;;;;5027501;28;20520;-71
2023/08/17 05:22:22;;;;;;;7.10;2.90;;;;;;;;;;5020521;28;20186;-71
2023/08/17 05:24:47;;;;;;;5.90;2.72;;;;;;;;;;5022407;28;20484;-71
2023/08/17 05:27:13;;;;;;;7.35;2.35;;;;;;;;;;5013347;28;20265;-71
2023/08/17 05:29:38;;;;;;;5.30;2.53;;;;;;;;;;5019119;28;20277;-71
2023/08/17 05:32:04;;;;;;;8.52;2.38;;;;;;;;;;5031811;28;20313;-71
2023/08/17 05:34:30;;;;;;;4.95;2.33;;;;;;;;;;5024231;28;20225;-72
2023/08/17 05:36:55;;;;;;;8.65;2.45;;;;;;;;;;5030088;28;20527;-72
2023/08/17 05:39:20;;;;;;;4.30;2.15;;;;;;;;;;5029589;28;20301;-72
2023/08/17 05:41:46;;;;;;;7.50;2.50;;;;;;;;;;5031526;28;20190;-71
2023/08/17 05:44:11;;;;;;;6.90;2.70;;;;;;;;;;5030098;28;20553;-71
2023/08/17 05:46:36;;;;;;;8.70;2.65;;;;;;;;;;5029633;28;20186;-71
2023/08/17 05:49:02;;;;;;;7.20;2.42;;;;;;;;;;5021592;28;20611;-72
2023/08/17 05:51:28;;;;;;;9.75;2.53;;;;;;;;;;5030851;28;20243;-71
2023/08/17 05:53:53;;;;;;;5.20;2.72;;;;;;;;;;5031618;28;20645;-71
2023/08/17 05:56:19;;;;;;;6.47;2.53;;;;;;;;;;5021356;28;20220;-71
2023/08/17 05:58:45;;;;;;;7.90;3.03;;;;;;;;;;5027859;28;20193;-72
2023/08/17 06:01:11;;;;;;;9.35;2.47;;;;;;;;;;5027924;28;20251;-73
2023/08/17 06:03:37;;;;;;;7.57;2.72;;;;;;;;;;5024914;28;20216;-72
2023/08/17 06:06:06;;;;;;;8.43;2.85;;;;;;;;;;5017212;28;20273;-71
2023/08/17 06:08:32;;;;;;;8.00;2.67;;;;;;;;;;5016523;28;20243;-72
2023/08/17 06:10:57;;;;;;;7.13;2.30;;;;;;;;;;5026687;28;20205;-73
2023/08/17 06:13:23;;;;;;;8.13;2.50;;;;;;;;;;5012578;28;20218;-71
2023/08/17 06:15:48;;;;;;;7.78;2.40;;;;;;;;;;5015641;28;20198;-73
2023/08/17 06:18:14;;;;;;;6.45;2.25;;;;;;;;;;5026380;28;20224;-73
2023/08/17 06:20:39;;;;;;;5.32;2.30;;;;;;;;;;5017003;28;20537;-71
2023/08/17 06:23:04;;;;;;;7.07;2.22;;;;;;;;;;5023973;28;20213;-73
2023/08/17 06:25:30;;;;;;;5.88;2.20;;;;;;;;;;4999704;28;20293;-71
2023/08/17 06:27:55;;;;;;;6.80;2.28;;;;;;;;;;5023110;28;20657;-73
2023/08/17 06:30:21;;;;;;;7.32;2.30;;;;;;;;;;5020299;28;20671;-73
2023/08/17 06:32:46;;;;;;;9.95;2.30;;;;;;;;;;5021393;28;20624;-73
2023/08/17 06:35:12;;;;;;;10.43;2.33;;;;;;;;;;5014126;28;20210;-73
2023/08/17 06:37:38;;;;;;;7.05;2.70;;;;;;;;;;5029500;28;20236;-73
2023/08/17 06:40:05;;;;;;;9.05;2.50;;;;;;;;;;5027503;28;20190;-73
2023/08/17 06:42:30;;;;;;;6.32;2.70;;;;;;;;;;5029308;28;20181;-74
2023/08/17 06:44:56;;;;;;;7.88;2.13;;;;;;;;;;5028577;28;20272;-73
2023/08/17 06:47:21;;;;;;;4.38;2.10;;;;;;;;;;5029670;28;20190;-72
2023/08/17 06:49:47;;;;;;;5.43;2.30;;;;;;;;;;5027703;28;20198;-73
2023/08/17 06:52:12;;;;;;;9.18;2.97;;;;;;;;;;5029450;28;20210;-74
2023/08/17 06:54:38;;;;;;;4.93;2.35;;;;;;;;;;5010564;28;20193;-73
2023/08/17 06:57:04;;;;;;;6.75;2.30;;;;;;;;;;5030141;28;20673;-73
2023/08/17 06:59:29;;;;;;;7.18;2.00;;;;;;;;;;5034930;28;20189;-73
2023/08/17 07:01:55;;;;;;;4.50;2.30;;;;;;;;;;5022532;28;20348;-73
2023/08/17 07:04:20;;;;;;;6.03;1.85;;;;;;;;;;5024583;28;20197;-73
2023/08/17 07:06:46;;;;;;;5.72;1.92;;;;;;;;;;5029408;28;20202;-73
2023/08/17 07:09:12;;;;;;;6.72;2.25;;;;;;;;;;5029750;28;20198;-73
2023/08/17 07:11:38;;;;;;;4.57;2.10;;;;;;;;;;5022059;28;20534;-73
2023/08/17 07:14:03;;;;;;;7.45;2.15;;;;;;;;;;5031466;28;20194;-73
2023/08/17 07:16:29;;;;;;;4.40;2.00;;;;;;;;;;5031774;28;20201;-73
2023/08/17 07:18:54;;;;;;;7.15;2.03;;;;;;;;;;5035025;28;20229;-73
2023/08/17 07:21:19;;;;;;;7.10;2.40;;;;;;;;;;5019668;28;20190;-73
2023/08/17 07:23:46;;;;;;;6.15;2.03;;;;;;;;;;5049484;28;20686;-73
2023/08/17 07:26:11;;;;;;;5.57;2.20;;;;;;;;;;5029617;28;20557;-73
2023/08/17 07:28:37;;;;;;;9.45;2.78;;;;;;;;;;5012651;28;20319;-73
2023/08/17 07:31:02;;;;;;;9.60;2.17;;;;;;;;;;5028089;28;20198;-73
2023/08/17 07:33:27;;;;;;;6.30;2.10;;;;;;;;;;5012540;28;20214;-73
2023/08/17 07:35:55;;;;;;;6.70;2.10;;;;;;;;;;5027428;28;20251;-73
2023/08/17 07:38:21;;;;;;;7.03;2.10;;;;;;;;;;5031901;28;20214;-73
2023/08/17 07:40:46;;;;;;;8.75;2.20;;;;;;;;;;5012215;28;20226;-73
2023/08/17 07:43:11;;;;;;;5.68;2.30;;;;;;;;;;5032355;28;20226;-73
2023/08/17 07:45:37;;;;;;;6.28;2.10;;;;;;;;;;5032571;28;20311;-73
2023/08/17 07:48:02;;;;;;;6.75;2.38;;;;;;;;;;5031326;28;20186;-73
2023/08/17 07:50:28;;;;;;;6.75;2.38;;;;;;;;;;5026604;28;20191;-73
2023/08/17 07:52:53;;;;;;;6.95;2.25;;;;;;;;;;5030179;28;20214;-73
2023/08/17 07:55:18;;;;;;;7.38;2.28;;;;;;;;;;5029960;28;20282;-73
2023/08/17 07:57:44;;;;;;;9.05;2.78;;;;;;;;;;5026484;28;20190;-72
2023/08/17 08:00:10;;;;;;;5.68;2.13;;;;;;;;;;5032290;28;20293;-73
2023/08/17 08:02:35;;;;;;;7.97;2.83;;;;;;;;;;5033548;28;20528;-74
2023/08/17 08:05:00;;;;;;;6.00;2.53;;;;;;;;;;5031552;28;20190;-73
2023/08/17 08:07:26;;;;;;;6.20;2.65;;;;;;;;;;5025605;28;20634;-73
2023/08/17 08:09:51;;;;;;;10.43;3.00;;;;;;;;;;5028778;28;20197;-74
2023/08/17 08:12:16;;;;;;;7.07;2.30;;;;;;;;;;5020527;28;20235;-72
2023/08/17 08:14:42;;;;;;;7.78;3.05;;;;;;;;;;5030531;28;20201;-73
2023/08/17 08:17:07;;;;;;;6.90;2.25;;;;;;;;;;5002382;28;20355;-74
2023/08/17 08:19:32;;;;;;;9.98;3.22;;;;;;;;;;5032780;28;20666;-73
2023/08/17 08:21:58;;;;;;;6.57;2.67;;;;;;;;;;5031250;28;20257;-73
2023/08/17 08:24:24;;;;;;;6.35;2.70;;;;;;;;;;5032004;28;20209;-74
2023/08/17 08:26:50;;;;;;;7.03;2.60;;;;;;;;;;5016197;28;20286;-73
2023/08/17 08:29:16;;;;;;;4.03;2.63;;;;;;;;;;5031677;28;20208;-73
2023/08/17 08:31:41;;;;;;;6.95;2.92;;;;;;;;;;5034070;28;20729;-74
2023/08/17 08:34:07;;;;;;;8.35;2.92;;;;;;;;;;5029796;28;20209;-71
2023/08/17 08:36:32;;;;;;;10.40;3.13;;;;;;;;;;5019657;28;20194;-71
2023/08/17 08:38:58;;;;;;;8.25;3.10;;;;;;;;;;5014412;28;20201;-70
2023/08/17 08:41:27;;;;;;;11.90;3.03;;;;;;;;;;5032534;28;20665;-73
2023/08/17 08:43:52;;;;;;;7.10;2.67;;;;;;;;;;5031708;28;20268;-73
2023/08/17 08:46:20;;;;;;;6.43;2.75;;;;;;;;;;5031045;28;20205;-72
2023/08/17 08:48:50;;;;;;;7.78;2.60;;;;;;;;;;5032936;28;20553;-71
2023/08/17 08:51:21;;;;;;;7.85;2.97;;;;;;;;;;5031923;28;20574;-72
2023/08/17 08:53:51;;;;;;;7.05;2.83;;;;;;;;;;5032927;28;20293;-71
2023/08/17 08:56:19;;;;;;;7.65;2.88;;;;;;;;;;5027562;28;20736;-71
2023/08/17 08:58:46;;;;;;;6.50;2.83;;;;;;;;;;5032572;28;20190;-71
2023/08/17 09:01:12;;;;;;;6.93;2.80;;;;;;;;;;5030866;28;20194;-72
2023/08/17 09:03:38;;;;;;;8.60;2.80;;;;;;;;;;5009121;28;20234;-71
2023/08/17 09:06:04;;;;;;;7.35;3.13;;;;;;;;;;5026541;28;20260;-72
2023/08/17 09:08:30;;;;;;;3.20;2.63;;;;;;;;;;5029518;28;20194;-72
2023/08/17 09:10:56;;;;;;;6.53;3.05;;;;;;;;;;5025992;28;20558;-72
2023/08/17 09:13:22;;;;;;;5.50;2.90;;;;;;;;;;5029631;28;20242;-72
2023/08/17 09:15:47;;;;;;;6.28;3.60;;;;;;;;;;5030213;28;20197;-72
2023/08/17 09:18:13;;;;;;;10.00;4.10;;;;;;;;;;5030427;28;20214;-72
2023/08/17 09:20:46;;;;;;;6.05;3.60;;;;;;;;;;5026560;28;20202;-72
2023/08/17 09:23:13;;;;;;;7.45;3.70;;;;;;;;;;5031021;28;20209;-72
2023/08/17 09:25:41;;;;;;;10.55;3.35;;;;;;;;;;5015170;28;20186;-72
2023/08/17 09:28:10;;;;;;;5.05;2.88;;;;;;;;;;5031053;28;20293;-73
2023/08/17 09:30:54;;;;;;;9.25;4.07;;;;;;;;;;5030615;28;20264;-73
2023/08/17 09:33:21;;;;;;;9.15;3.15;;;;;;;;;;5025515;28;20267;-72
2023/08/17 09:35:47;;;;;;;6.88;2.97;;;;;;;;;;5026356;28;20646;-73
2023/08/17 09:38:13;;;;;;;6.05;3.53;;;;;;;;;;5021093;28;20601;-73
2023/08/17 09:40:39;;;;;;;8.63;3.30;;;;;;;;;;5029310;28;20182;-73
2023/08/17 09:43:04;;;;;;;7.03;3.10;;;;;;;;;;5029676;28;20758;-73
2023/08/17 09:45:30;;;;;;;9.20;3.53;;;;;;;;;;5030036;28;20289;-72
2023/08/17 09:47:59;;;;;;;6.93;3.42;;;;;;;;;;5034102;28;20221;-72
2023/08/17 09:50:25;;;;;;;8.15;3.70;;;;;;;;;;5027555;28;20267;-72
2023/08/17 09:52:54;;;;;;;9.02;3.58;;;;;;;;;;5028114;28;20522;-72
2023/08/17 09:55:21;;;;;;;5.13;3.30;;;;;;;;;;5030999;28;20263;-72
2023/08/17 09:57:50;;;;;;;5.82;3.78;;;;;;;;;;5009796;28;20557;-73
2023/08/17 10:00:16;;;;;;;8.23;3.78;;;;;;;;;;5018663;28;20676;-73
2023/08/17 10:02:43;;;;;;;5.32;3.30;;;;;;;;;;5010787;28;20560;-72
2023/08/17 10:05:11;;;;;;;6.72;3.45;;;;;;;;;;5028032;28;20213;-73
2023/08/17 10:07:40;;;;;;;6.78;3.65;;;;;;;;;;5025086;28;20287;-72
2023/08/17 10:10:07;;;;;;;8.32;3.28;;;;;;;;;;5000992;28;20174;-72
2023/08/17 10:12:37;;;;;;;5.38;3.45;;;;;;;;;;5026171;28;20302;-73
2023/08/17 10:15:08;;;;;;;4.95;3.35;;;;;;;;;;5030208;28;20194;-73
2023/08/17 10:17:54;;;;;;;8.27;3.97;;;;;;;;;;5033401;28;20210;-73
2023/08/17 10:20:20;;;;;;;6.75;3.90;;;;;;;;;;5026659;28;20200;-73
2023/08/17 10:22:54;;;;;;;6.13;4.05;;;;;;;;;;5025831;28;20206;-72
2023/08/17 10:25:21;;;;;;;8.48;4.05;;;;;;;;;;5034055;28;20357;-73
2023/08/17 10:27:48;;;;;;;7.60;4.10;;;;;;;;;;5036889;28;20713;-72
2023/08/17 10:30:14;;;;;;;5.40;3.78;;;;;;;;;;5030380;28;20274;-72
2023/08/17 10:32:44;;;;;;;7.65;3.50;;;;;;;;;;5022566;28;20717;-73
2023/08/17 10:35:10;;;;;;;5.80;3.45;;;;;;;;;;5033047;28;20273;-72
2023/08/17 10:37:38;;;;;;;7.53;3.80;;;;;;;;;;5026748;28;20236;-73
2023/08/17 10:40:04;;;;;;;5.93;3.67;;;;;;;;;;5034039;28;20194;-72
2023/08/17 10:42:32;;;;;;;5.28;3.42;;;;;;;;;;5011516;28;20218;-72
2023/08/17 10:44:57;;;;;;;7.68;3.67;;;;;;;;;;5035235;28;20252;-73
2023/08/17 10:47:31;;;;;;;5.97;3.30;;;;;;;;;;5018574;28;20191;-72
2023/08/17 10:50:19;;;;;;;5.65;3.80;;;;;;;;;;5017291;28;20204;-73
2023/08/17 10:52:47;;;;;;;6.68;3.90;;;;;;;;;;5020435;28;20241;-72
2023/08/17 10:55:13;;;;;;;6.30;3.83;;;;;;;;;;5033727;28;20247;-72
2023/08/17 10:57:40;;;;;;;10.10;4.22;;;;;;;;;;5021261;28;20199;-73
2023/08/17 11:00:07;;;;;;;5.00;4.10;;;;;;;;;;5033329;28;20197;-72
2023/08/17 11:02:33;;;;;;;7.57;4.65;;;;;;;;;;5019552;28;20673;-73
2023/08/17 11:05:00;;;;;;;5.20;4.00;;;;;;;;;;5011967;28;20286;-73
2023/08/17 11:07:28;;;;;;;7.22;4.40;;;;;;;;;;5023745;28;20186;-73
2023/08/17 11:09:54;;;;;;;9.45;4.63;;;;;;;;;;5032508;28;20201;-71
2023/08/17 11:12:26;;;;;;;8.07;4.95;;;;;;;;;;5032882;28;20221;-72
2023/08/17 11:14:51;;;;;;;6.65;4.60;;;;;;;;;;5033931;28;20684;-72
2023/08/17 11:17:19;;;;;;;6.88;4.15;;;;;;;;;;5034126;28;20214;-72
2023/08/17 11:19:45;;;;;;;7.15;4.57;;;;;;;;;;5032308;28;20182;-72
2023/08/17 11:22:11;;;;;;;4.97;4.18;;;;;;;;;;5028556;28;20189;-72
2023/08/17 11:24:40;;;;;;;9.20;5.00;;;;;;;;;;5034473;28;20301;-72
2023/08/17 11:27:05;;;;;;;9.43;5.30;;;;;;;;;;5023827;28;20198;-72
2023/08/17 11:29:32;;;;;;;7.38;5.30;;;;;;;;;;5024780;28;20527;-72
2023/08/17 11:31:58;;;;;;;6.72;5.55;;;;;;;;;;5033081;28;20214;-73
2023/08/17 11:34:23;;;;;;;8.15;5.63;;;;;;;;;;5034598;28;20182;-72
2023/08/17 11:36:48;;;;;;;8.35;5.35;;;;;;;;;;5029246;28;20203;-73
2023/08/17 11:39:14;;;;;;;7.28;4.97;;;;;;;;;;5030955;28;20182;-73
2023/08/17 11:41:40;;;;;;;9.80;5.45;;;;;;;;;;5041687;28;20194;-74
2023/08/17 11:44:06;;;;;;;10.02;6.70;;;;;;;;;;5029138;28;20230;-72
2023/08/17 11:46:32;;;;;;;6.15;4.80;;;;;;;;;;5033829;28;20594;-73
2023/08/17 11:49:01;;;;;;;7.95;5.60;;;;;;;;;;5033035;28;20187;-72
2023/08/17 11:51:30;;;;;;;10.05;5.53;;;;;;;;;;5031980;28;20194;-72
2023/08/17 11:53:59;;;;;;;7.22;5.60;;;;;;;;;;5030899;28;20269;-72
2023/08/17 11:56:24;;;;;;;5.90;5.25;;;;;;;;;;5031827;28;20186;-72
2023/08/17 11:58:50;;;;;;;6.90;5.60;;;;;;;;;;5030279;28;20186;-72
2023/08/17 12:01:15;;;;;;;8.23;4.93;;;;;;;;;;5032514;28;20190;-73
2023/08/17 12:03:42;;;;;;;9.43;5.72;;;;;;;;;;5000979;28;20275;-73
2023/08/17 12:06:08;;;;;;;7.18;5.35;;;;;;;;;;5024916;28;20198;-72
2023/08/17 12:08:33;;;;;;;7.15;5.65;;;;;;;;;;5032300;28;20202;-72
2023/08/17 12:11:00;;;;;;;7.22;5.72;;;;;;;;;;5015736;28;20433;-71
2023/08/17 12:13:35;;;;;;;8.35;5.68;;;;;;;;;;5019154;28;20213;-70
2023/08/17 12:16:01;;;;;;;7.68;5.65;;;;;;;;;;5031441;28;20641;-71
2023/08/17 12:18:27;;;;;;;8.38;5.93;;;;;;;;;;5031485;28;20668;-71
2023/08/17 12:20:56;;;;;;;9.13;6.47;;;;;;;;;;5029763;28;20186;-71
2023/08/17 12:23:21;;;;;;;12.07;7.10;;;;;;;;;;5018122;28;20198;-71
2023/08/17 12:25:52;;;;;;;8.63;6.85;;;;;;;;;;5033372;28;20190;-71
2023/08/17 12:28:18;;;;;;;10.20;6.85;;;;;;;;;;5030238;28;20194;-71
2023/08/17 12:30:43;;;;;;;11.88;7.20;;;;;;;;;;5035321;28;20626;-72
2023/08/17 12:33:09;;;;;;;10.50;7.32;;;;;;;;;;5029989;28;20700;-72
2023/08/17 12:35:34;;;;;;;8.25;7.28;;;;;;;;;;5016407;28;20187;-72
2023/08/17 12:38:00;;;;;;;12.15;7.25;;;;;;;;;;5035938;28;20247;-72
2023/08/17 12:40:25;;;;;;;11.80;7.57;;;;;;;;;;5028932;28;20194;-72
2023/08/17 12:42:51;;;;;;;14.50;7.97;;;;;;;;;;4991005;28;1083772;-71
2023/08/17 12:45:16;;;;;;;14.38;8.05;;;;;;;;;;5033112;28;20197;-72
2023/08/17 12:47:42;;;;;;;10.60;7.55;;;;;;;;;;5024440;28;20210;-72
2023/08/17 12:50:08;;;;;;;11.85;8.05;;;;;;;;;;5030416;28;20186;-72
2023/08/17 12:52:34;;;;;;;12.68;8.52;;;;;;;;;;5025701;28;20672;-72
2023/08/17 12:54:59;;;;;;;10.77;7.35;;;;;;;;;;5032008;28;20198;-71
2023/08/17 12:57:26;;;;;;;11.10;7.38;;;;;;;;;;5014962;28;20213;-72
2023/08/17 12:59:52;;;;;;;9.68;7.60;;;;;;;;;;5032315;28;20186;-72
2023/08/17 13:02:19;;;;;;;10.85;8.45;;;;;;;;;;5030457;28;20182;-72
2023/08/17 13:04:45;;;;;;;10.52;9.40;;;;;;;;;;5032219;28;20704;-72
2023/08/17 13:07:10;;;;;;;9.30;8.32;;;;;;;;;;5031673;28;20178;-72
2023/08/17 13:09:35;;;;;;;11.95;9.75;;;;;;;;;;5030187;28;20194;-71
2023/08/17 13:12:01;;;;;;;12.27;9.63;;;;;;;;;;5028224;28;20222;-72
2023/08/17 13:14:26;;;;;;;10.65;9.10;;;;;;;;;;5025014;28;20197;-72
2023/08/17 13:16:52;;;;;;;15.50;9.48;;;;;;;;;;5030100;28;20210;-72
2023/08/17 13:19:18;;;;;;;12.10;9.63;;;;;;;;;;5018749;28;20186;-72
2023/08/17 13:21:43;;;;;;;12.35;8.30;;;;;;;;;;5025804;28;20284;-72
2023/08/17 13:24:08;;;;;;;12.55;8.70;;;;;;;;;;5021353;28;20209;-71
2023/08/17 13:26:34;;;;;;;13.40;10.00;;;;;;;;;;5029078;28;20229;-72
2023/08/17 13:28:59;;;;;;;11.57;9.90;;;;;;;;;;5020659;28;20700;-72
2023/08/17 13:31:25;;;;;;;13.02;11.25;;;;;;;;;;5034319;28;20189;-72
2023/08/17 13:33:50;;;;;;;11.35;9.65;;;;;;;;;;5044041;28;20217;-72
2023/08/17 13:36:16;;;;;;;13.02;10.60;;;;;;;;;;5031490;28;20200;-72
2023/08/17 13:38:41;;;;;;;11.95;9.88;;;;;;;;;;5036144;28;20297;-72
2023/08/17 13:41:07;;;;;;;12.05;9.82;;;;;;;;;;5018266;28;20182;-72
2023/08/17 13:43:32;;;;;;;12.65;11.00;;;;;;;;;;5034440;28;20563;-72
2023/08/17 13:45:57;;;;;;;12.98;10.55;;;;;;;;;;5017512;28;20273;-72
2023/08/17 13:48:23;;;;;;;15.73;10.63;;;;;;;;;;5028633;28;20287;-72
2023/08/17 13:50:48;;;;;;;15.35;11.00;;;;;;;;;;5013074;28;20194;-73
2023/08/17 13:53:14;;;;;;;14.25;11.57;;;;;;;;;;5015137;28;20256;-73
2023/08/17 13:55:39;;;;;;;12.85;11.55;;;;;;;;;;5034333;28;20190;-72
2023/08/17 13:58:05;;;;;;;15.50;12.07;;;;;;;;;;5030029;28;20190;-72
2023/08/17 14:00:30;;;;;;;17.35;12.05;;;;;;;;;;5032594;28;20556;-72
2023/08/17 14:02:56;;;;;;;13.80;12.30;;;;;;;;;;5029782;28;20241;-73
2023/08/17 14:05:21;;;;;;;18.35;14.02;;;;;;;;;;5031875;28;20610;-72
2023/08/17 14:07:48;;;;;;;23.00;13.32;;;;;;;;;;5025980;28;20561;-72
2023/08/17 14:10:13;;;;;;;16.23;13.50;;;;;;;;;;5015751;28;20174;-72
2023/08/17 14:12:39;;;;;;;19.30;12.65;;;;;;;;;;5027732;28;20203;-71
2023/08/17 14:15:05;;;;;;;15.90;12.70;;;;;;;;;;5026310;28;20552;-71
2023/08/17 14:17:30;;;;;;;16.23;12.93;;;;;;;;;;5030971;28;20233;-71
2023/08/17 14:19:56;;;;;;;15.43;12.90;;;;;;;;;;5029589;28;20221;-72
2023/08/17 14:22:21;;;;;;;14.35;12.85;;;;;;;;;;5028754;28;20186;-71
2023/08/17 14:24:46;;;;;;;12.25;10.90;;;;;;;;;;5023852;28;20208;-71
2023/08/17 14:27:12;;;;;;;13.85;12.00;;;;;;;;;;5013951;28;20198;-71
2023/08/17 14:29:38;;;;;;;14.77;11.05;;;;;;;;;;5025756;28;20198;-72
2023/08/17 14:32:04;;;;;;;13.77;10.90;;;;;;;;;;5029775;28;20685;-71